createdAt,value
2019-04-03T00:01:25.262Z,3.13
2019-04-03T00:03:57.558Z,2.99
2019-04-03T00:06:30.035Z,3.04
2019-04-03T00:09:01.278Z,2.99
2019-04-03T00:11:33.721Z,3.11
2019-04-03T00:14:05.039Z,2.97
2019-04-03T00:16:36.235Z,2.93
2019-04-03T00:19:07.443Z,2.89
2019-04-03T00:21:40.655Z,2.89
2019-04-03T00:24:11.829Z,2.87
2019-04-03T00:26:43.021Z,2.98
2019-04-03T00:29:14.252Z,2.83
2019-04-03T00:31:46.551Z,2.90
2019-04-03T00:34:19.929Z,2.89
2019-04-03T00:36:52.946Z,2.86
2019-04-03T00:39:24.360Z,2.86
2019-04-03T00:41:56.092Z,2.86
2019-04-03T00:44:27.271Z,2.92
2019-04-03T00:46:58.471Z,2.87
2019-04-03T00:49:29.631Z,2.84
2019-04-03T00:52:01.845Z,2.82
2019-04-03T00:54:33.004Z,2.80
2019-04-03T00:57:04.202Z,2.80
2019-04-03T00:59:35.417Z,2.78
2019-04-03T01:02:06.645Z,2.73
2019-04-03T01:04:38.027Z,2.80
2019-04-03T01:07:09.166Z,2.70
2019-04-03T01:09:40.353Z,2.78
2019-04-03T01:12:11.458Z,2.78
2019-04-03T01:14:43.611Z,2.83
2019-04-03T01:17:15.849Z,2.76
2019-04-03T01:19:47.018Z,2.65
2019-04-03T01:22:18.245Z,2.66
2019-04-03T01:24:49.437Z,2.70
2019-04-03T01:27:20.559Z,2.67
2019-04-03T01:29:51.763Z,2.48
2019-04-03T01:32:24.068Z,2.46
2019-04-03T01:34:55.110Z,2.46
2019-04-03T01:37:27.289Z,2.49
2019-04-03T01:39:58.490Z,2.43
2019-04-03T01:42:29.605Z,2.38
2019-04-03T01:45:00.847Z,2.40
2019-04-03T01:47:32.094Z,2.36
2019-04-03T01:50:03.253Z,2.37
2019-04-03T01:52:35.408Z,2.34
2019-04-03T01:55:06.725Z,2.25
2019-04-03T01:57:37.939Z,2.28
2019-04-03T02:00:09.179Z,2.32
2019-04-03T02:02:40.450Z,2.30
2019-04-03T02:05:13.297Z,2.34
2019-04-03T02:07:45.138Z,2.23
2019-04-03T02:10:18.920Z,2.19
2019-04-03T02:12:52.209Z,2.18
2019-04-03T02:15:23.417Z,2.20
2019-04-03T02:17:55.287Z,2.23
2019-04-03T02:20:27.227Z,2.21
2019-04-03T02:23:00.401Z,2.20
2019-04-03T02:25:32.211Z,2.16
2019-04-03T02:28:04.530Z,2.10
2019-04-03T02:30:36.823Z,2.24
2019-04-03T02:33:08.032Z,2.18
2019-04-03T02:35:40.427Z,2.13
2019-04-03T02:38:12.209Z,2.09
2019-04-03T02:40:43.410Z,2.11
2019-04-03T02:43:15.337Z,2.08
2019-04-03T02:45:47.054Z,2.09
2019-04-03T02:48:19.346Z,2.09
2019-04-03T02:50:51.681Z,1.99
2019-04-03T02:53:22.742Z,2.08
2019-04-03T02:55:53.865Z,2.05
2019-04-03T02:58:25.029Z,2.09
2019-04-03T03:00:56.664Z,2.14
2019-04-03T03:03:28.127Z,2.08
2019-04-03T03:06:01.054Z,2.12
2019-04-03T03:08:32.405Z,2.08
2019-04-03T03:11:04.704Z,2.03
2019-04-03T03:13:35.881Z,2.06
2019-04-03T03:16:07.093Z,2.07
2019-04-03T03:18:38.470Z,2.10
2019-04-03T03:21:12.287Z,2.06
2019-04-03T03:23:42.649Z,2.05
2019-04-03T03:26:13.840Z,2.04
2019-04-03T03:28:46.892Z,2.05
2019-04-03T03:31:19.127Z,2.12
2019-04-03T03:33:50.924Z,2.19
2019-04-03T03:36:25.616Z,2.25
2019-04-03T03:38:55.504Z,2.17
2019-04-03T03:41:26.654Z,2.11
2019-04-03T03:43:57.894Z,2.23
2019-04-03T03:46:29.538Z,2.26
2019-04-03T03:49:00.852Z,2.20
2019-04-03T03:51:32.962Z,2.23
2019-04-03T03:54:04.584Z,2.41
2019-04-03T03:56:37.484Z,2.59
2019-04-03T03:59:08.867Z,2.63
2019-04-03T04:01:40.099Z,2.86
2019-04-03T04:04:14.259Z,3.31
2019-04-03T04:06:44.330Z,3.58
2019-04-03T04:09:17.840Z,3.96
2019-04-03T04:11:48.647Z,4.39
2019-04-03T04:14:22.849Z,4.57
2019-04-03T04:16:52.869Z,5.30
2019-04-03T04:19:28.725Z,6.18
2019-04-03T04:21:57.484Z,6.64
2019-04-03T04:24:29.080Z,6.74
2019-04-03T04:27:00.877Z,8.15
2019-04-03T04:29:33.241Z,8.23
2019-04-03T04:32:04.652Z,8.74
2019-04-03T04:34:35.891Z,8.55
2019-04-03T04:37:06.989Z,8.71
2019-04-03T04:39:38.239Z,9.10
2019-04-03T04:42:11.944Z,9.26
2019-04-03T04:44:43.492Z,9.98
2019-04-03T04:47:15.661Z,10.66
2019-04-03T04:49:47.067Z,10.06
2019-04-03T04:52:18.374Z,10.60
2019-04-03T04:54:49.681Z,10.98
2019-04-03T04:57:20.996Z,11.43
2019-04-03T04:59:52.315Z,11.64
2019-04-03T05:02:23.592Z,11.78
2019-04-03T05:04:55.870Z,11.24
2019-04-03T05:07:30.312Z,11.88
2019-04-03T05:10:00.816Z,12.27
2019-04-03T05:12:32.140Z,12.04
2019-04-03T05:15:05.237Z,12.65
2019-04-03T05:17:36.575Z,12.31
2019-04-03T05:20:07.892Z,11.84
2019-04-03T05:22:39.110Z,12.11
2019-04-03T05:25:10.465Z,12.95
2019-04-03T05:27:41.904Z,12.30
2019-04-03T05:30:16.345Z,12.03
2019-04-03T05:32:47.723Z,11.29
2019-04-03T05:35:21.296Z,12.19
2019-04-03T05:37:52.563Z,13.05
2019-04-03T05:40:25.873Z,12.52
2019-04-03T05:42:58.119Z,12.58
2019-04-03T05:45:29.849Z,13.71
2019-04-03T05:48:02.319Z,12.63
2019-04-03T05:50:36.158Z,13.20
2019-04-03T05:53:06.997Z,13.11
2019-04-03T05:55:41.086Z,14.14
2019-04-03T05:58:15.278Z,12.47
2019-04-03T06:00:47.005Z,13.23
2019-04-03T06:03:19.510Z,12.59
2019-04-03T06:05:50.848Z,14.16
2019-04-03T06:08:22.617Z,13.20
2019-04-03T06:10:54.049Z,13.23
2019-04-03T06:13:25.409Z,14.62
2019-04-03T06:15:57.001Z,13.25
2019-04-03T06:18:31.585Z,13.26
2019-04-03T06:21:02.313Z,12.65
2019-04-03T06:23:36.008Z,13.40
2019-04-03T06:26:08.982Z,13.94
2019-04-03T06:28:42.556Z,15.15
2019-04-03T06:31:14.291Z,15.62
2019-04-03T06:33:46.540Z,16.44
2019-04-03T06:36:18.133Z,16.08
2019-04-03T06:38:49.981Z,15.77
2019-04-03T06:41:21.602Z,16.93
2019-04-03T06:43:55.822Z,16.66
2019-04-03T06:46:29.177Z,18.26
2019-04-03T06:49:01.918Z,16.83
2019-04-03T06:51:33.109Z,17.10
2019-04-03T06:54:07.177Z,15.40
2019-04-03T06:56:39.989Z,16.87
2019-04-03T06:59:10.382Z,18.12
2019-04-03T07:01:41.857Z,15.42
2019-04-03T07:04:14.096Z,14.37
2019-04-03T07:06:45.720Z,14.04
2019-04-03T07:09:24.333Z,15.08
2019-04-03T07:11:51.624Z,14.01
2019-04-03T07:14:25.786Z,14.04
2019-04-03T07:17:05.197Z,12.77
2019-04-03T07:19:35.373Z,13.46
2019-04-03T07:22:06.680Z,15.15
2019-04-03T07:24:38.093Z,12.94
2019-04-03T07:27:09.618Z,12.69
2019-04-03T07:29:40.959Z,13.37
2019-04-03T07:32:13.219Z,13.37
2019-04-03T07:34:44.594Z,14.51
2019-04-03T07:37:19.973Z,15.76
2019-04-03T07:39:50.609Z,15.66
2019-04-03T07:42:24.566Z,16.02
2019-04-03T07:44:57.988Z,15.87
2019-04-03T07:47:29.332Z,14.08
2019-04-03T07:50:00.605Z,14.88
2019-04-03T07:52:32.813Z,15.69
2019-04-03T07:55:05.637Z,14.28
2019-04-03T07:57:43.155Z,12.71
2019-04-03T08:00:15.701Z,10.11
2019-04-03T08:02:48.780Z,9.76
2019-04-03T08:05:20.722Z,9.62
2019-04-03T08:07:55.918Z,9.48
2019-04-03T08:10:30.611Z,9.51
2019-04-03T08:13:01.937Z,9.52
2019-04-03T08:15:34.235Z,9.38
2019-04-03T08:18:05.484Z,8.87
2019-04-03T08:20:37.113Z,9.45
2019-04-03T08:23:08.466Z,9.52
2019-04-03T08:25:42.351Z,9.18
2019-04-03T08:28:17.939Z,8.77
2019-04-03T08:30:50.050Z,8.98
2019-04-03T08:33:26.594Z,8.95
2019-04-03T08:35:55.820Z,9.45
2019-04-03T08:38:31.023Z,10.24
2019-04-03T08:41:04.488Z,9.92
2019-04-03T08:43:36.040Z,9.65
2019-04-03T08:46:09.763Z,9.44
2019-04-03T08:48:40.723Z,9.50
2019-04-03T08:51:12.130Z,9.23
2019-04-03T08:53:43.744Z,9.69
2019-04-03T08:56:17.139Z,9.87
2019-04-03T08:58:48.443Z,9.38
2019-04-03T09:01:20.662Z,9.37
2019-04-03T09:03:52.671Z,9.11
2019-04-03T09:06:25.036Z,9.12
2019-04-03T09:08:58.179Z,9.34
2019-04-03T09:11:30.003Z,9.40
2019-04-03T09:14:02.555Z,9.09
2019-04-03T09:16:34.170Z,9.15
2019-04-03T09:19:05.449Z,9.18
2019-04-03T09:21:36.674Z,8.63
2019-04-03T09:24:08.249Z,8.99
2019-04-03T09:26:40.930Z,9.46
2019-04-03T09:29:13.825Z,9.50
2019-04-03T09:31:45.220Z,9.67
2019-04-03T09:34:16.760Z,9.64
2019-04-03T09:36:48.109Z,9.32
2019-04-03T09:39:27.297Z,9.87
2019-04-03T09:41:58.554Z,10.05
2019-04-03T09:44:29.999Z,10.69
2019-04-03T09:47:03.433Z,10.07
2019-04-03T09:49:38.212Z,9.59
2019-04-03T09:52:09.788Z,9.41
2019-04-03T09:54:41.996Z,9.56
2019-04-03T09:57:13.226Z,9.82
2019-04-03T09:59:44.551Z,9.96
2019-04-03T10:02:17.245Z,10.10
2019-04-03T10:04:50.043Z,10.39
2019-04-03T10:07:31.222Z,9.86
2019-04-03T10:10:05.371Z,9.46
2019-04-03T10:12:36.859Z,9.49
2019-04-03T10:15:09.482Z,9.62
2019-04-03T10:17:40.798Z,9.68
2019-04-03T10:20:15.031Z,10.00
2019-04-03T10:22:46.834Z,10.31
2019-04-03T10:25:19.430Z,10.01
2019-04-03T10:27:50.971Z,9.64
2019-04-03T10:30:24.468Z,9.34
2019-04-03T10:33:00.119Z,9.51
2019-04-03T10:35:32.436Z,9.66
2019-04-03T10:38:04.184Z,9.64
2019-04-03T10:40:35.600Z,9.59
2019-04-03T10:43:06.866Z,9.90
2019-04-03T10:45:41.296Z,9.13
2019-04-03T10:48:13.447Z,9.16
2019-04-03T10:50:58.094Z,9.18
2019-04-03T10:56:52.103Z,9.32
2019-04-03T10:59:25.013Z,9.42
2019-04-03T11:01:58.677Z,9.58
2019-04-03T11:04:30.104Z,9.87
2019-04-03T11:07:05.371Z,10.03
2019-04-03T11:09:36.662Z,10.28
2019-04-03T11:12:10.225Z,9.85
2019-04-03T11:14:40.810Z,9.75
2019-04-03T11:17:13.363Z,9.48
2019-04-03T11:19:45.047Z,9.50
2019-04-03T11:22:16.794Z,9.71
2019-04-03T11:24:49.238Z,10.15
2019-04-03T11:29:56.217Z,10.23
2019-04-03T11:30:53.931Z,10.75
2019-04-03T11:32:28.282Z,10.08
2019-04-03T11:35:00.118Z,10.00
2019-04-03T11:37:38.279Z,10.00
2019-04-03T11:40:11.767Z,9.84
2019-04-03T11:42:44.395Z,9.95
2019-04-03T11:45:17.086Z,9.88
2019-04-03T11:47:48.370Z,10.05
2019-04-03T11:50:19.755Z,10.21
2019-04-03T11:52:54.734Z,10.62
2019-04-03T11:55:26.107Z,10.45
2019-04-03T11:57:57.603Z,10.52
2019-04-03T12:00:36.752Z,10.54
2019-04-03T12:03:10.802Z,10.11
2019-04-03T12:05:41.632Z,10.05
2019-04-03T12:08:14.175Z,10.23
2019-04-03T12:10:46.068Z,10.52
2019-04-03T12:13:19.455Z,10.59
2019-04-03T12:15:53.212Z,10.91
2019-04-03T12:18:24.206Z,10.71
2019-04-03T12:20:56.657Z,10.31
2019-04-03T12:23:27.978Z,10.18
2019-04-03T12:25:59.439Z,10.24
2019-04-03T12:28:32.661Z,10.26
2019-04-03T12:31:05.343Z,10.16
2019-04-03T12:33:36.612Z,10.08
2019-04-03T12:36:12.613Z,10.31
2019-04-03T12:39:10.010Z,10.14
2019-04-03T12:41:43.131Z,10.10
2019-04-03T12:44:16.634Z,9.98
2019-04-03T12:46:49.298Z,9.84
2019-04-03T12:49:22.789Z,10.02
2019-04-03T12:51:56.051Z,10.21
2019-04-03T12:54:28.380Z,10.26
2019-04-03T12:57:01.534Z,10.71
2019-04-03T12:59:33.013Z,10.73
2019-04-03T13:02:04.305Z,10.50
2019-04-03T13:04:41.621Z,10.52
2019-04-03T13:07:14.474Z,10.41
2019-04-03T13:09:47.688Z,10.14
2019-04-03T13:12:30.246Z,10.14
2019-04-03T13:15:19.438Z,10.21
2019-04-03T13:17:51.052Z,10.15
2019-04-03T13:20:22.437Z,10.11
2019-04-03T13:22:55.565Z,10.08
2019-04-03T13:25:27.113Z,10.24
2019-04-03T13:27:58.631Z,10.12
2019-04-03T13:30:30.135Z,10.20
2019-04-03T13:33:05.706Z,10.34
2019-04-03T13:39:04.719Z,10.38
2019-04-03T13:41:36.326Z,10.27
2019-04-03T13:44:07.923Z,10.36
2019-04-03T13:46:39.786Z,10.44
2019-04-03T13:49:11.845Z,10.38
2019-04-03T13:51:43.298Z,10.33
2019-04-03T13:54:15.465Z,10.08
2019-04-03T13:56:46.874Z,10.04
2019-04-03T13:59:26.503Z,10.06
2019-04-03T14:01:57.893Z,10.06
2019-04-03T14:04:29.274Z,10.05
2019-04-03T14:07:30.045Z,10.23
2019-04-03T14:10:13.426Z,10.16
2019-04-03T14:12:58.879Z,10.22
2019-04-03T14:15:34.416Z,10.10
2019-04-03T14:18:07.783Z,9.97
2019-04-03T14:20:41.303Z,10.03
2019-04-03T14:23:12.518Z,10.18
2019-04-03T14:25:44.298Z,10.16
2019-04-03T14:28:15.539Z,10.23
2019-04-03T14:30:47.521Z,10.23
2019-04-03T14:33:20.681Z,10.15
2019-04-03T14:35:54.166Z,10.11
2019-04-03T14:38:28.593Z,9.97
2019-04-03T14:41:08.591Z,9.84
2019-04-03T14:43:40.613Z,9.78
2019-04-03T14:46:17.287Z,9.62
2019-04-03T14:48:48.795Z,9.54
2019-04-03T14:51:21.493Z,9.55
2019-04-03T14:53:54.569Z,9.54
2019-04-03T14:56:26.196Z,9.63
2019-04-03T14:58:58.899Z,9.53
2019-04-03T15:01:30.950Z,9.57
2019-04-03T15:04:02.323Z,9.65
2019-04-03T15:07:01.724Z,9.69
2019-04-03T15:09:39.992Z,9.81
2019-04-03T15:12:12.550Z,9.96
2019-04-03T15:14:44.342Z,10.01
2019-04-03T15:17:16.030Z,9.96
2019-04-03T15:19:49.289Z,9.89
2019-04-03T15:22:21.564Z,9.96
2019-04-03T15:24:52.824Z,9.71
2019-04-03T15:27:25.571Z,9.62
2019-04-03T15:30:00.041Z,9.42
2019-04-03T15:32:32.047Z,9.37
2019-04-03T15:35:04.226Z,9.39
2019-04-03T15:37:36.164Z,9.38
2019-04-03T15:40:08.028Z,9.28
2019-04-03T15:42:41.413Z,9.27
2019-04-03T15:45:13.531Z,9.19
2019-04-03T15:47:47.250Z,9.12
2019-04-03T15:50:19.058Z,9.04
2019-04-03T15:52:50.800Z,9.04
2019-04-03T15:55:24.762Z,8.97
2019-04-03T15:57:56.935Z,8.96
2019-04-03T16:00:28.462Z,8.89
2019-04-03T16:03:00.328Z,8.84
2019-04-03T16:05:35.733Z,8.74
2019-04-03T16:08:05.201Z,8.70
2019-04-03T16:10:37.219Z,8.71
2019-04-03T16:13:09.339Z,8.71
2019-04-03T16:15:40.930Z,8.20
2019-04-03T16:18:13.702Z,7.96
2019-04-03T16:20:49.194Z,7.82
2019-04-03T16:23:48.385Z,7.72
2019-04-03T16:26:29.663Z,7.53
2019-04-03T16:29:09.361Z,7.53
2019-04-03T16:31:37.427Z,7.48
2019-04-03T16:34:12.270Z,7.37
2019-04-03T16:36:49.702Z,7.18
2019-04-03T16:39:25.037Z,7.18
2019-04-03T16:41:57.369Z,7.16
2019-04-03T16:44:28.814Z,7.17
2019-04-03T16:47:08.584Z,7.08
2019-04-03T16:56:15.983Z,6.97
2019-04-03T16:59:00.673Z,6.92
2019-04-03T17:01:59.511Z,6.79
2019-04-03T17:05:45.968Z,6.79
2019-04-03T17:08:30.656Z,6.83
2019-04-03T17:11:31.574Z,6.80
2019-04-03T17:14:23.656Z,6.76
2019-04-03T17:17:08.852Z,6.76
2019-04-03T17:19:54.330Z,6.66
2019-04-03T17:23:15.801Z,6.66
2019-04-03T17:25:44.168Z,6.70
2019-04-03T17:28:18.343Z,6.65
2019-04-03T17:30:59.958Z,6.65
2019-04-03T17:33:54.610Z,6.62
2019-04-03T17:36:30.435Z,6.61
2019-04-03T17:39:20.657Z,6.60
2019-04-03T17:42:09.922Z,6.57
2019-04-03T17:44:50.982Z,6.47
2019-04-03T17:47:27.016Z,6.55
2019-04-03T17:50:08.381Z,6.55
2019-04-03T17:52:43.655Z,6.46
2019-04-03T17:55:17.803Z,6.42
2019-04-03T17:58:06.649Z,6.45
2019-04-03T18:00:39.970Z,6.43
2019-04-03T18:03:12.455Z,6.43
2019-04-03T18:05:45.538Z,6.38
2019-04-03T18:08:16.871Z,6.34
2019-04-03T18:10:48.235Z,6.35
2019-04-03T18:13:24.612Z,6.31
2019-04-03T18:15:58.647Z,6.17
2019-04-03T18:18:29.857Z,6.23
2019-04-03T18:21:01.051Z,6.29
2019-04-03T18:23:32.295Z,6.29
2019-04-03T18:26:05.724Z,6.32
2019-04-03T18:28:37.004Z,6.30
2019-04-03T18:31:08.258Z,6.29
2019-04-03T18:33:39.549Z,6.25
2019-04-03T18:36:11.861Z,6.03
2019-04-03T18:38:43.129Z,6.09
2019-04-03T18:41:16.891Z,6.04
2019-04-03T18:43:54.108Z,6.10
2019-04-03T18:46:31.969Z,6.04
2019-04-03T18:49:01.039Z,5.99
2019-04-03T18:51:29.003Z,5.90
2019-04-03T18:54:01.330Z,5.88
2019-04-03T18:56:32.714Z,5.89
2019-04-03T18:59:04.112Z,5.93
2019-04-03T19:01:38.058Z,5.81
2019-04-03T19:04:10.503Z,5.77
2019-04-03T19:06:42.949Z,5.87
2019-04-03T19:09:15.401Z,5.80
2019-04-03T19:11:46.727Z,5.79
2019-04-03T19:14:27.006Z,5.69
2019-04-03T19:16:54.435Z,5.84
2019-04-03T19:19:25.508Z,5.73
2019-04-03T19:21:56.800Z,5.64
2019-04-03T19:24:29.227Z,5.81
2019-04-03T19:27:02.167Z,5.66
2019-04-03T19:29:35.494Z,5.56
2019-04-03T19:32:06.874Z,5.53
2019-04-03T19:34:38.296Z,5.48
2019-04-03T19:37:11.191Z,5.41
2019-04-03T19:39:43.772Z,5.41
2019-04-03T19:42:16.118Z,5.40
2019-04-03T19:44:49.173Z,5.26
2019-04-03T19:47:25.154Z,5.25
2019-04-03T19:50:00.871Z,5.21
2019-04-03T19:52:32.361Z,5.23
2019-04-03T19:55:06.458Z,5.20
2019-04-03T19:57:40.596Z,5.16
2019-04-03T20:00:11.992Z,5.11
2019-04-03T20:02:43.703Z,5.14
2019-04-03T20:05:18.567Z,5.09
2019-04-03T20:07:53.298Z,5.17
2019-04-03T20:10:24.653Z,5.15
2019-04-03T20:12:56.268Z,5.17
2019-04-03T20:15:27.679Z,5.13
2019-04-03T20:17:59.003Z,5.09
2019-04-03T20:20:33.378Z,5.08
2019-04-03T20:23:04.197Z,5.02
2019-04-03T20:25:36.991Z,5.02
2019-04-03T20:28:08.426Z,5.02
2019-04-03T20:30:39.823Z,4.94
2019-04-03T20:33:12.252Z,4.93
2019-04-03T20:35:44.621Z,4.91
2019-04-03T20:38:19.042Z,4.89
2019-04-03T20:40:56.465Z,4.89
2019-04-03T20:43:28.772Z,4.86
2019-04-03T20:46:00.199Z,4.89
2019-04-03T20:48:31.412Z,4.84
2019-04-03T20:51:02.699Z,4.80
2019-04-03T20:53:34.179Z,4.86
2019-04-03T20:56:05.335Z,4.82
2019-04-03T20:58:39.938Z,4.84
2019-04-03T21:01:09.435Z,4.84
2019-04-03T21:03:41.834Z,4.74
2019-04-03T21:06:13.356Z,4.72
2019-04-03T21:08:44.569Z,4.76
2019-04-03T21:11:20.022Z,4.74
2019-04-03T21:13:51.247Z,4.69
2019-04-03T21:16:32.813Z,4.71
2019-04-03T21:18:55.388Z,4.71
2019-04-03T21:21:27.606Z,4.71
2019-04-03T21:23:58.804Z,4.73
2019-04-03T21:26:30.183Z,4.79
2019-04-03T21:29:05.408Z,4.81
2019-04-03T21:31:36.870Z,4.80
2019-04-03T21:34:08.070Z,4.82
2019-04-03T21:36:39.442Z,4.88
2019-04-03T21:39:12.618Z,4.93
2019-04-03T21:41:43.525Z,4.92
2019-04-03T21:44:14.706Z,4.89
2019-04-03T21:46:45.958Z,4.87
2019-04-03T21:49:17.451Z,4.90
2019-04-03T21:51:49.954Z,4.91
2019-04-03T21:54:21.851Z,4.87
2019-04-03T21:56:53.365Z,4.85
2019-04-03T21:59:24.632Z,4.83
2019-04-03T22:01:55.890Z,4.82
2019-04-03T22:04:27.095Z,4.79
2019-04-03T22:06:59.140Z,4.79
2019-04-03T22:09:31.323Z,4.70
2019-04-03T22:12:05.665Z,4.68
2019-04-03T22:14:36.525Z,4.66
2019-04-03T22:17:09.185Z,4.67
2019-04-03T22:19:40.301Z,4.62
2019-04-03T22:22:11.520Z,4.62
2019-04-03T22:24:42.912Z,4.61
2019-04-03T22:27:14.095Z,4.61
2019-04-03T22:29:46.195Z,4.57
2019-04-03T22:32:17.418Z,4.54
2019-04-03T22:34:48.598Z,4.57
2019-04-03T22:37:19.699Z,4.50
2019-04-03T22:39:50.884Z,4.53
2019-04-03T22:42:22.062Z,4.49
2019-04-03T22:44:53.291Z,4.49
2019-04-03T22:47:25.198Z,4.43
2019-04-03T22:49:56.939Z,4.42
2019-04-03T22:52:28.007Z,4.37
2019-04-03T22:54:59.183Z,4.31
2019-04-03T22:57:30.499Z,4.33
2019-04-03T23:00:04.258Z,4.27
2019-04-03T23:02:36.486Z,4.25
2019-04-03T23:05:08.804Z,4.23
2019-04-03T23:07:40.026Z,4.18
2019-04-03T23:10:11.290Z,4.14
2019-04-03T23:12:42.479Z,4.11
2019-04-03T23:15:13.708Z,4.11
2019-04-03T23:17:45.436Z,4.11
2019-04-03T23:20:16.865Z,4.06
2019-04-03T23:22:48.207Z,4.08
2019-04-03T23:25:19.435Z,3.98
2019-04-03T23:27:50.616Z,3.98
2019-04-03T23:30:22.069Z,3.98
2019-04-03T23:32:53.421Z,3.94
2019-04-03T23:35:26.632Z,3.93
2019-04-03T23:37:57.837Z,3.89
2019-04-03T23:40:29.019Z,3.87
2019-04-03T23:43:00.247Z,3.81
2019-04-03T23:45:32.598Z,3.79
2019-04-03T23:48:03.912Z,3.76
2019-04-03T23:50:36.279Z,3.73
2019-04-03T23:53:07.878Z,3.71
2019-04-03T23:55:40.262Z,3.67
2019-04-03T23:58:11.557Z,3.66
